Time;durP1;ratioP1;P1;durP2;ratioP2;P2;SDS_P1;SDS_P2;PMS_P1;PMS_P2;Temp;Humidity;BMP_temperature;BMP_pressure;BME280_temperature;BME280_humidity;BME280_pressure;Samples;Min_cycle;Max_cycle;Signal;HPM_P1;HPM_P2
2022/04/20 00:01:30;;;;;;;2.40;1.70;;;;;;;22.00;34.49;101943.78;5067646;28;20060;-69
2022/04/20 00:03:56;;;;;;;4.15;1.70;;;;;;;21.98;34.77;101943.13;5068831;28;20127;-69
2022/04/20 00:06:21;;;;;;;1.95;1.58;;;;;;;21.95;34.60;101943.47;5076916;28;20074;-69
2022/04/20 00:08:47;;;;;;;2.08;1.63;;;;;;;21.93;34.63;101939.34;5078927;28;20032;-70
2022/04/20 00:11:13;;;;;;;1.60;1.50;;;;;;;21.95;34.74;101946.13;5068491;28;20040;-69
2022/04/20 00:13:38;;;;;;;1.70;1.60;;;;;;;21.91;34.42;101941.34;5047644;28;20035;-69
2022/04/20 00:16:04;;;;;;;2.00;1.52;;;;;;;21.91;34.43;101942.16;5068999;28;20052;-69
2022/04/20 00:18:30;;;;;;;2.08;1.60;;;;;;;21.91;34.78;101942.16;5069873;28;20075;-69
2022/04/20 00:20:55;;;;;;;1.85;1.67;;;;;;;21.91;34.40;101936.03;5055464;28;20027;-69
2022/04/20 00:23:21;;;;;;;2.20;1.77;;;;;;;21.89;34.42;101938.81;5071242;28;20035;-69
2022/04/20 00:25:46;;;;;;;2.72;2.00;;;;;;;21.86;34.50;101928.56;5066215;28;20036;-69
2022/04/20 00:28:12;;;;;;;1.70;1.50;;;;;;;21.86;34.64;101928.56;5066004;28;20580;-69
2022/04/20 00:30:37;;;;;;;1.77;1.60;;;;;;;21.85;34.56;101932.19;5068831;28;20743;-69
2022/04/20 00:33:03;;;;;;;1.88;1.63;;;;;;;21.84;34.44;101937.66;5046454;28;20096;-69
2022/04/20 00:35:29;;;;;;;2.25;1.80;;;;;;;21.84;34.57;101940.31;5054013;28;20142;-69
2022/04/20 00:37:55;;;;;;;2.25;1.80;;;;;;;21.81;34.71;101938.84;5068778;28;20706;-69
2022/04/20 00:40:21;;;;;;;2.17;1.85;;;;;;;21.82;34.63;101927.22;5069650;28;20035;-69
2022/04/20 00:42:47;;;;;;;5.72;2.00;;;;;;;21.82;34.77;101934.34;5067405;28;20405;-69
2022/04/20 00:45:13;;;;;;;2.83;1.70;;;;;;;21.80;34.86;101937.19;5055487;28;20425;-70
2022/04/20 00:47:42;;;;;;;2.13;1.75;;;;;;;21.81;34.30;101935.34;5050376;28;20482;-69
2022/04/20 00:50:11;;;;;;;2.03;1.77;;;;;;;21.79;34.34;101932.03;5062985;28;20028;-69
2022/04/20 00:52:38;;;;;;;2.88;1.80;;;;;;;21.78;34.68;101939.16;5058539;28;20036;-69
2022/04/20 00:55:05;;;;;;;1.80;1.63;;;;;;;21.73;34.44;101940.66;5070546;28;20066;-69
2022/04/20 00:57:32;;;;;;;1.60;1.50;;;;;;;21.71;34.75;101938.16;5052752;28;20086;-69
2022/04/20 01:00:01;;;;;;;1.88;1.67;;;;;;;21.70;34.54;101934.69;5068611;28;20115;-69
2022/04/20 01:02:28;;;;;;;1.83;1.70;;;;;;;21.68;34.61;101941.16;5051818;28;20041;-69
2022/04/20 01:04:54;;;;;;;1.80;1.70;;;;;;;21.62;34.57;101928.56;5048371;28;20487;-69
2022/04/20 01:07:40;;;;;;;1.75;1.60;;;;;;;21.65;34.62;101934.34;5054371;28;20290;-69
2022/04/20 01:10:24;;;;;;;1.80;1.65;;;;;;;21.63;34.59;101944.28;5053150;28;20454;-69
2022/04/20 01:13:08;;;;;;;2.10;1.90;;;;;;;21.64;34.97;101939.81;5071792;28;20051;-69
2022/04/20 01:16:00;;;;;;;1.50;1.40;;;;;;;21.58;34.45;101935.19;5040624;28;20072;-69
2022/04/20 01:18:43;;;;;;;1.60;1.50;;;;;;;21.62;34.53;101939.16;5060784;28;20036;-69
2022/04/20 01:21:26;;;;;;;2.42;1.65;;;;;;;21.54;34.57;101939.97;5060549;28;20585;-69
2022/04/20 01:24:14;;;;;;;1.77;1.67;;;;;;;21.62;34.67;101933.88;5062158;28;20044;-69
2022/04/20 01:26:58;;;;;;;2.30;2.03;;;;;;;21.57;34.66;101934.38;5055839;28;20135;-69
2022/04/20 01:29:44;;;;;;;2.92;1.70;;;;;;;21.54;34.59;101937.31;5070197;28;20115;-69
2022/04/20 01:32:30;;;;;;;1.70;1.60;;;;;;;21.57;34.78;101933.53;5043878;28;20035;-69
2022/04/20 01:35:18;;;;;;;1.70;1.60;;;;;;;21.55;34.52;101939.00;5071340;28;20044;-69
2022/04/20 01:37:44;;;;;;;1.67;1.50;;;;;;;21.56;34.49;101945.13;5057128;28;20472;-69
2022/04/20 01:40:10;;;;;;;3.28;1.70;;;;;;;21.54;34.44;101947.91;5040410;28;20078;-69
2022/04/20 01:42:35;;;;;;;2.20;1.92;;;;;;;21.53;34.73;101942.78;5055335;28;20032;-69
2022/04/20 01:45:06;;;;;;;2.63;1.90;;;;;;;21.53;34.60;101948.09;5057465;28;20036;-69
2022/04/20 01:47:55;;;;;;;2.13;1.70;;;;;;;21.55;34.52;101943.47;5056412;28;20495;-70
2022/04/20 01:50:32;;;;;;;2.30;1.65;;;;;;;21.44;34.79;101941.97;5050870;28;20717;-70
2022/04/20 01:53:30;;;;;;;2.55;1.65;;;;;;;21.47;34.51;101944.28;5057226;28;20376;-69
2022/04/20 01:56:12;;;;;;;2.30;1.90;;;;;;;21.49;34.47;101947.59;5053621;28;20044;-69
2022/04/20 01:59:00;;;;;;;3.15;2.20;;;;;;;21.46;34.62;101950.56;5065093;28;20061;-69
2022/04/20 02:04:20;;;;;;;2.83;1.80;;;;;;;21.44;34.57;101946.44;5056069;28;20875;-69
2022/04/20 02:06:45;;;;;;;2.20;1.73;;;;;;;21.40;34.38;101940.63;5058551;28;20055;-69
2022/04/20 02:09:17;;;;;;;3.45;1.80;;;;;;;21.47;34.39;101944.28;5068679;28;20147;-69
2022/04/20 02:11:50;;;;;;;2.08;1.80;;;;;;;21.42;34.58;101943.94;5055278;28;20512;-69
2022/04/20 02:14:26;;;;;;;2.20;1.70;;;;;;;21.34;34.67;101936.78;5056029;28;20039;-69
2022/04/20 02:17:01;;;;;;;2.15;1.70;;;;;;;21.38;34.73;101945.28;5053237;28;20432;-69
2022/04/20 02:19:33;;;;;;;2.70;1.73;;;;;;;21.39;34.51;101950.41;5053214;28;20521;-70
2022/04/20 02:22:25;;;;;;;1.65;1.52;;;;;;;21.37;34.69;101946.25;5055257;28;20143;-69
2022/04/20 02:24:51;;;;;;;2.45;1.80;;;;;;;21.39;34.74;101946.94;5069769;28;20059;-70
2022/04/20 02:27:16;;;;;;;2.13;1.92;;;;;;;21.37;34.77;101940.97;5057351;28;20051;-69
2022/04/20 02:29:42;;;;;;;2.63;1.60;;;;;;;21.41;34.52;101945.78;5069996;28;20032;-70
2022/04/20 02:32:08;;;;;;;2.75;1.67;;;;;;;21.35;34.68;101938.44;5068034;28;20565;-69
2022/04/20 02:34:36;;;;;;;3.72;2.13;;;;;;;21.34;34.83;101936.78;5068330;28;20028;-69
2022/04/20 02:37:03;;;;;;;2.88;2.00;;;;;;;21.30;34.65;101927.53;5069971;28;20071;-69
2022/04/20 02:39:29;;;;;;;4.05;1.70;;;;;;;21.38;34.70;101939.97;5072171;28;20047;-70
2022/04/20 02:41:55;;;;;;;1.98;1.70;;;;;;;21.33;34.62;101929.84;5067342;28;20037;-69
2022/04/20 02:44:21;;;;;;;2.17;1.63;;;;;;;21.32;34.53;101928.19;5055300;28;20607;-69
2022/04/20 02:46:47;;;;;;;2.13;1.90;;;;;;;21.30;34.73;101930.16;5058846;28;20131;-69
2022/04/20 02:49:13;;;;;;;2.80;1.90;;;;;;;21.32;34.78;101935.31;5022417;28;20037;-70
2022/04/20 02:51:39;;;;;;;1.90;1.63;;;;;;;21.29;34.72;101931.16;5059659;28;20526;-69
2022/04/20 02:54:05;;;;;;;2.22;1.48;;;;;;;21.32;34.60;101937.94;5055983;28;20037;-69
2022/04/20 02:56:33;;;;;;;2.35;1.95;;;;;;;21.29;34.78;101939.13;5068034;28;20040;-69
2022/04/20 02:58:59;;;;;;;2.00;1.80;;;;;;;21.27;34.63;101942.91;5056910;28;20308;-69
2022/04/20 03:01:28;;;;;;;1.98;1.77;;;;;;;21.27;34.81;101940.28;5053894;28;20044;-69
2022/04/20 03:03:54;;;;;;;2.35;1.88;;;;;;;21.28;34.77;101941.94;5056394;28;20024;-69
2022/04/20 03:06:27;;;;;;;3.08;1.75;;;;;;;21.28;34.85;101944.56;5051729;28;20045;-69
2022/04/20 03:08:54;;;;;;;1.75;1.65;;;;;;;21.26;34.70;101939.44;5065950;28;20036;-69
2022/04/20 03:11:23;;;;;;;2.58;1.75;;;;;;;21.24;34.60;101944.06;5041908;28;20654;-69
2022/04/20 03:13:50;;;;;;;1.80;1.70;;;;;;;21.25;34.54;101951.03;5051315;28;20806;-69
2022/04/20 03:16:18;;;;;;;2.30;2.00;;;;;;;21.23;34.64;101945.03;5052607;28;20132;-69
2022/04/20 03:18:43;;;;;;;2.05;1.70;;;;;;;21.20;34.74;101942.72;5052703;28;20040;-69
2022/04/20 03:21:18;;;;;;;1.83;1.73;;;;;;;21.13;34.64;101942.50;5072886;28;20047;-69
2022/04/20 03:23:44;;;;;;;2.72;1.88;;;;;;;21.15;34.88;101952.94;5052912;28;20266;-69
2022/04/20 03:26:16;;;;;;;2.45;1.90;;;;;;;21.10;34.97;101955.25;5054291;28;20659;-69
2022/04/20 03:29:08;;;;;;;2.60;1.80;;;;;;;21.08;34.90;101958.06;5066649;28;20925;-69
2022/04/20 03:31:34;;;;;;;2.22;1.83;;;;;;;21.05;34.94;101957.56;5055955;28;20051;-69
2022/04/20 03:34:01;;;;;;;2.78;1.95;;;;;;;21.00;34.92;101960.66;5056640;28;20042;-69
2022/04/20 03:36:27;;;;;;;2.78;1.77;;;;;;;20.99;35.15;101963.47;5054605;28;20122;-69
2022/04/20 03:38:53;;;;;;;2.63;2.10;;;;;;;20.96;34.94;101962.00;5051279;28;20047;-69
2022/04/20 03:41:18;;;;;;;3.28;2.10;;;;;;;20.95;34.95;101965.63;5067245;28;20068;-69
2022/04/20 03:43:44;;;;;;;2.13;1.88;;;;;;;20.96;35.01;101974.41;5054370;28;20036;-69
2022/04/20 03:46:11;;;;;;;2.28;1.92;;;;;;;20.91;35.27;101974.88;5067705;28;20056;-69
2022/04/20 03:48:36;;;;;;;3.05;2.05;;;;;;;20.90;35.06;101969.75;5053529;28;20078;-69
2022/04/20 03:51:02;;;;;;;3.03;2.10;;;;;;;20.87;35.18;101970.06;5055530;28;20035;-69
2022/04/20 03:53:29;;;;;;;2.28;1.80;;;;;;;20.89;35.29;101970.75;5053681;28;20090;-70
2022/04/20 03:55:56;;;;;;;2.38;2.05;;;;;;;20.88;35.22;101972.56;5054653;28;20055;-69
2022/04/20 03:58:22;;;;;;;2.08;1.80;;;;;;;20.85;35.21;101975.53;5052296;28;20056;-69
2022/04/20 04:00:48;;;;;;;1.83;1.73;;;;;;;20.89;34.99;101978.69;5055005;28;20037;-69
2022/04/20 04:03:16;;;;;;;2.33;2.13;;;;;;;20.88;35.14;101977.03;5055954;28;20558;-69
2022/04/20 04:05:42;;;;;;;1.80;1.70;;;;;;;20.85;35.16;101980.00;5057300;28;20032;-69
2022/04/20 04:08:17;;;;;;;2.40;2.10;;;;;;;20.83;35.08;101980.16;5037538;28;20043;-69
2022/04/20 04:10:42;;;;;;;1.77;1.67;;;;;;;20.87;35.00;101989.44;5048905;28;20368;-69
2022/04/20 04:13:08;;;;;;;2.38;1.80;;;;;;;20.83;35.13;101988.09;5055402;28;20112;-69
2022/04/20 04:15:35;;;;;;;2.13;1.75;;;;;;;20.86;35.09;101989.59;5050281;28;20039;-69
2022/04/20 04:18:04;;;;;;;1.70;1.60;;;;;;;20.87;35.14;101993.91;5053093;28;20073;-69
2022/04/20 04:20:37;;;;;;;2.20;1.90;;;;;;;20.86;35.03;101998.38;5053308;28;20066;-69
2022/04/20 04:23:03;;;;;;;2.30;1.70;;;;;;;20.80;34.98;101997.16;5055092;28;20032;-69
2022/04/20 04:25:40;;;;;;;2.38;1.98;;;;;;;20.86;34.94;101994.88;5051056;28;20054;-69
2022/04/20 04:28:08;;;;;;;2.72;1.80;;;;;;;20.88;35.01;102004.34;5052911;28;20068;-69
2022/04/20 04:30:37;;;;;;;1.95;1.80;;;;;;;20.82;35.15;101994.34;5042013;28;20040;-69
2022/04/20 04:33:04;;;;;;;2.00;1.90;;;;;;;20.79;35.16;101990.22;5051843;28;20066;-70
2022/04/20 04:35:32;;;;;;;2.22;2.03;;;;;;;20.78;35.14;102001.78;5044100;28;20140;-69
2022/04/20 04:37:59;;;;;;;2.33;1.83;;;;;;;20.76;35.13;102000.28;5025855;28;20037;-69
2022/04/20 04:40:28;;;;;;;2.33;1.80;;;;;;;20.72;35.24;101997.13;5024570;28;20132;-69
2022/04/20 04:42:53;;;;;;;2.47;1.80;;;;;;;20.71;35.24;102000.75;5026137;28;20431;-70
2022/04/20 04:50:55;;;;;;;2.10;1.73;;;;;;;20.67;35.31;102001.25;5029058;28;20083;-70
2022/04/20 04:53:21;;;;;;;2.28;1.80;;;;;;;20.67;35.19;102007.38;5026493;28;20041;-70
2022/04/20 04:55:47;;;;;;;2.28;1.88;;;;;;;20.60;35.28;101997.53;5022583;28;20661;-69
2022/04/20 04:58:13;;;;;;;1.88;1.77;;;;;;;20.63;35.22;102006.00;5017731;28;20761;-69
2022/04/20 05:00:40;;;;;;;2.85;2.00;;;;;;;20.61;35.28;102001.84;5025648;28;20037;-69
2022/04/20 05:03:17;;;;;;;2.65;2.03;;;;;;;20.60;35.35;102000.19;5017617;28;20585;-69
2022/04/20 05:05:44;;;;;;;3.10;2.10;;;;;;;20.61;35.36;102001.84;5022172;28;20506;-69
2022/04/20 05:08:11;;;;;;;2.63;1.83;;;;;;;20.64;35.22;102004.19;5028788;28;20040;-69
2022/04/20 05:10:37;;;;;;;2.13;1.70;;;;;;;20.58;35.57;101999.53;5028343;28;22520;-69
2022/04/20 05:13:07;;;;;;;2.00;1.73;;;;;;;20.66;35.32;102012.81;5016832;28;20071;-69
2022/04/20 05:15:34;;;;;;;2.05;1.55;;;;;;;20.64;35.39;102007.66;5022875;28;20025;-69
2022/04/20 05:18:01;;;;;;;2.65;1.58;;;;;;;20.66;35.33;102013.66;5030539;28;20722;-70
2022/04/20 05:20:27;;;;;;;2.15;1.80;;;;;;;20.68;35.28;102009.03;5030768;28;20421;-69
2022/04/20 05:22:54;;;;;;;2.15;1.52;;;;;;;20.66;35.24;102004.88;5033469;28;20179;-69
2022/04/20 05:25:22;;;;;;;2.00;1.80;;;;;;;20.67;35.24;102004.72;5030811;28;20051;-69
2022/04/20 05:27:47;;;;;;;1.80;1.70;;;;;;;20.71;35.28;102011.34;5027759;28;20424;-69
2022/04/20 05:30:16;;;;;;;1.95;1.60;;;;;;;20.74;35.13;102015.50;5029650;28;20037;-69
2022/04/20 05:32:45;;;;;;;1.83;1.73;;;;;;;20.90;34.99;102020.88;5030695;28;20045;-69
2022/04/20 05:35:17;;;;;;;2.33;1.77;;;;;;;21.13;34.97;102007.91;5035305;28;20091;-69
2022/04/20 05:43:21;;;;;;;1.83;1.70;;;;;;;23.07;32.06;102010.78;5051358;28;20113;-69
2022/04/20 05:45:47;;;;;;;1.60;1.50;;;;;;;23.08;32.21;102009.78;5035433;28;20032;-69
2022/04/20 05:48:23;;;;;;;1.98;1.45;;;;;;;22.95;32.29;102004.19;5047437;28;20071;-69
2022/04/20 05:50:49;;;;;;;1.58;1.48;;;;;;;22.79;32.31;102011.16;5048524;28;20124;-69
2022/04/20 05:53:17;;;;;;;2.40;1.92;;;;;;;22.68;32.61;102008.06;5049038;28;20505;-68
2022/04/20 05:55:43;;;;;;;1.90;1.70;;;;;;;22.57;33.19;102009.25;5046482;28;20029;-69
2022/04/20 05:58:09;;;;;;;2.53;1.80;;;;;;;22.45;33.03;102013.28;5050081;28;20483;-68
2022/04/20 06:00:34;;;;;;;2.00;1.80;;;;;;;22.30;33.47;102013.13;5049168;28;20037;-69
2022/04/20 06:03:22;;;;;;;2.00;1.80;;;;;;;22.18;33.67;102017.94;5068970;28;20044;-69
2022/04/20 06:05:50;;;;;;;2.78;1.65;;;;;;;22.05;33.90;102017.59;5053885;28;20448;-69
2022/04/20 06:08:33;;;;;;;2.55;1.70;;;;;;;21.92;33.87;102009.28;5055688;28;20052;-69
2022/04/20 06:11:22;;;;;;;3.42;1.80;;;;;;;21.89;34.11;102013.06;5064178;28;20429;-69
2022/04/20 06:13:48;;;;;;;2.28;1.73;;;;;;;21.90;34.06;102009.44;5068136;28;20036;-69
2022/04/20 06:16:24;;;;;;;3.22;1.70;;;;;;;21.88;34.30;102011.41;5047790;28;20047;-69
2022/04/20 06:19:10;;;;;;;1.98;1.67;;;;;;;21.79;34.15;102008.94;5071335;28;20356;-69
2022/04/20 06:21:59;;;;;;;1.85;1.65;;;;;;;21.83;34.16;102007.59;5059964;28;20105;-68
2022/04/20 06:24:50;;;;;;;2.03;1.58;;;;;;;22.00;34.13;102015.41;5057240;28;20040;-68
2022/04/20 06:27:36;;;;;;;2.88;1.85;;;;;;;22.16;33.86;102014.63;5053793;28;20412;-68
2022/04/20 06:30:17;;;;;;;2.20;1.75;;;;;;;22.08;33.87;102017.25;5058771;28;20043;-68
2022/04/20 06:33:12;;;;;;;1.70;1.55;;;;;;;22.09;34.04;102016.28;5023907;28;20656;-68
2022/04/20 06:35:58;;;;;;;2.42;1.67;;;;;;;22.12;33.67;102020.44;5052884;28;20052;-71
2022/04/20 06:38:52;;;;;;;2.42;1.60;;;;;;;22.09;34.11;102016.28;5058934;28;20040;-71
2022/04/20 06:41:29;;;;;;;1.60;1.50;;;;;;;22.06;33.75;102026.38;5051160;28;20040;-70
2022/04/20 06:43:56;;;;;;;1.95;1.75;;;;;;;22.01;34.13;102027.66;5079087;28;20371;-70
2022/04/20 06:46:47;;;;;;;2.70;1.55;;;;;;;22.07;34.05;102031.50;5039875;28;20623;-70
2022/04/20 06:49:14;;;;;;;3.75;2.00;;;;;;;22.16;33.69;102019.09;5072606;28;20070;-70
2022/04/20 07:00:16;;;;;;;2.45;2.05;;;;;;;22.03;33.95;102000.97;5054593;28;20040;-70
2022/04/20 07:03:11;;;;;;;3.10;1.80;;;;;;;22.08;34.19;102009.28;5016804;28;20563;-70
2022/04/20 07:05:39;;;;;;;2.53;2.17;;;;;;;22.06;33.95;102011.28;5067170;28;20441;-68
2022/04/20 07:08:27;;;;;;;2.78;1.95;;;;;;;22.02;34.27;102018.72;5053177;28;20138;-69
2022/04/20 07:11:13;;;;;;;1.88;1.63;;;;;;;21.99;34.35;102007.63;5056701;28;20106;-69
2022/04/20 07:13:39;;;;;;;2.05;1.70;;;;;;;22.00;34.57;102012.75;5072593;28;20086;-69
2022/04/20 07:16:04;;;;;;;2.22;1.90;;;;;;;21.94;34.62;102010.78;5065877;28;20500;-67
2022/04/20 07:18:33;;;;;;;1.77;1.67;;;;;;;21.98;34.38;102013.91;5067652;28;20433;-67
2022/04/20 07:20:59;;;;;;;2.75;1.70;;;;;;;21.93;34.43;102008.28;5072347;28;20228;-67
2022/04/20 07:24:00;;;;;;;2.38;1.80;;;;;;;21.99;34.59;102018.22;5055940;28;20052;-67
2022/04/20 07:26:44;;;;;;;2.75;1.85;;;;;;;21.97;34.07;102020.22;5080920;28;20051;-67
2022/04/20 07:29:28;;;;;;;2.30;1.75;;;;;;;21.99;34.20;102016.41;5076421;28;20047;-67
2022/04/20 07:32:29;;;;;;;3.15;1.92;;;;;;;21.99;34.42;102013.75;5059660;28;20044;-69
2022/04/20 07:35:27;;;;;;;1.80;1.70;;;;;;;21.98;34.11;102005.97;5040815;28;20048;-69
2022/04/20 07:38:13;;;;;;;3.20;1.70;;;;;;;22.02;34.05;102005.47;5080793;28;20102;-70
2022/04/20 07:40:57;;;;;;;3.58;1.77;;;;;;;22.04;33.99;102007.94;5073975;28;20397;-69
2022/04/20 07:43:50;;;;;;;2.88;2.20;;;;;;;22.02;34.35;102017.91;5067253;28;20042;-69
2022/04/20 07:46:36;;;;;;;2.13;1.92;;;;;;;22.05;34.17;102024.72;5057188;28;20127;-69
2022/04/20 07:52:19;;;;;;;1.98;1.70;;;;;;;22.06;34.08;102016.59;5062923;28;20093;-69
2022/04/20 07:55:11;;;;;;;2.85;2.05;;;;;;;22.10;33.89;102022.41;5059684;28;20028;-70
2022/04/20 07:57:53;;;;;;;2.65;1.70;;;;;;;22.12;33.84;102015.13;5056648;28;20032;-69
2022/04/20 08:00:37;;;;;;;2.47;1.95;;;;;;;22.11;33.99;102029.38;5061130;28;20540;-69
2022/04/20 08:03:24;;;;;;;2.08;1.85;;;;;;;22.09;34.09;102016.28;5074806;28;20102;-69
2022/04/20 08:05:51;;;;;;;1.75;1.48;;;;;;;22.11;33.96;102030.22;5060374;28;20486;-68
2022/04/20 08:08:19;;;;;;;3.13;1.58;;;;;;;22.23;33.71;102020.91;5069508;28;20078;-68
2022/04/20 08:10:45;;;;;;;2.55;1.75;;;;;;;22.44;33.35;102019.56;5064023;28;20824;-69
2022/04/20 08:15:55;;;;;;;2.83;1.65;;;;;;;22.97;33.03;102026.91;5054769;28;20035;-69
2022/04/20 08:18:24;;;;;;;2.28;1.90;;;;;;;23.09;32.81;102019.41;5057159;28;20028;-68
2022/04/20 08:21:29;;;;;;;2.15;1.55;;;;;;;23.20;32.39;102021.69;4969801;28;20054;-68
2022/04/20 08:23:54;;;;;;;2.60;1.80;;;;;;;23.28;32.22;102024.28;4943396;28;21185;-67
2022/04/20 08:26:20;;;;;;;3.38;1.70;;;;;;;23.30;32.43;102018.81;5001165;28;20052;-69
2022/04/20 08:28:46;;;;;;;3.33;1.75;;;;;;;23.31;32.30;102025.78;5044491;28;20810;-68
2022/04/20 08:31:15;;;;;;;3.35;1.85;;;;;;;23.33;32.30;102018.44;5061785;28;20052;-67
2022/04/20 08:33:43;;;;;;;2.53;2.03;;;;;;;23.49;31.69;102034.31;5073810;28;20090;-68
2022/04/20 08:36:11;;;;;;;2.95;1.90;;;;;;;23.42;31.63;102022.75;5034271;28;20134;-67
2022/04/20 08:38:38;;;;;;;1.73;1.60;;;;;;;23.41;31.91;102011.28;5045864;28;20046;-67
2022/04/20 08:41:04;;;;;;;3.30;1.95;;;;;;;23.46;31.95;102021.38;5046017;28;20036;-66
2022/04/20 08:43:32;;;;;;;2.38;2.03;;;;;;;23.50;31.90;102028.81;5070386;28;20067;-67
2022/04/20 08:46:02;;;;;;;1.70;1.52;;;;;;;23.40;31.66;102006.97;5030467;28;20409;-67
2022/04/20 08:48:29;;;;;;;2.58;1.80;;;;;;;23.57;31.49;102022.84;5074727;28;20093;-68
2022/04/20 08:50:55;;;;;;;2.70;1.80;;;;;;;23.54;31.56;102023.19;5063277;28;20613;-67
2022/04/20 08:53:21;;;;;;;2.80;2.25;;;;;;;23.49;31.64;102024.50;5042546;28;20052;-69
2022/04/20 08:55:47;;;;;;;1.92;1.65;;;;;;;23.51;31.04;102019.84;5077883;28;20047;-71
2022/04/20 08:58:14;;;;;;;3.33;1.88;;;;;;;23.49;31.15;102019.19;5047032;28;20555;-67
2022/04/20 09:00:40;;;;;;;3.22;1.60;;;;;;;23.54;31.47;102031.16;5076245;28;20051;-67
2022/04/20 09:03:06;;;;;;;2.65;1.90;;;;;;;23.50;31.17;102020.03;5033450;28;20036;-69
2022/04/20 09:05:33;;;;;;;2.30;1.50;;;;;;;23.56;31.21;102029.16;5055637;28;20465;-71
2022/04/20 09:08:08;;;;;;;3.28;1.80;;;;;;;23.52;31.25;102029.50;5054212;28;20055;-70
2022/04/20 09:10:36;;;;;;;1.60;1.50;;;;;;;23.51;31.21;102022.50;5075344;28;20489;-68
2022/04/20 09:13:11;;;;;;;1.88;1.65;;;;;;;23.54;31.08;102024.00;5034332;28;20479;-73
2022/04/20 09:15:38;;;;;;;5.45;1.73;;;;;;;23.54;30.91;102013.38;5078677;28;20115;-69
2022/04/20 09:18:05;;;;;;;4.60;1.73;;;;;;;23.54;30.93;102009.88;5017987;28;20163;-67
2022/04/20 09:20:32;;;;;;;1.92;1.73;;;;;;;23.55;30.74;102007.06;5064230;28;20042;-68
2022/04/20 09:23:00;;;;;;;2.20;1.70;;;;;;;23.56;30.49;102008.69;5077395;28;20059;-69
2022/04/20 09:25:36;;;;;;;2.25;1.58;;;;;;;23.56;30.98;102013.19;5045549;28;20113;-71
2022/04/20 09:28:03;;;;;;;2.40;1.70;;;;;;;23.54;30.83;102007.22;5077931;28;20044;-67
2022/04/20 09:30:34;;;;;;;1.90;1.70;;;;;;;23.50;30.79;101993.44;5043139;28;20040;-67
2022/04/20 09:33:02;;;;;;;2.28;1.50;;;;;;;23.51;30.71;101995.91;5071115;28;20043;-68
2022/04/20 09:35:29;;;;;;;2.40;1.75;;;;;;;23.61;30.43;101994.91;5035024;28;20048;-68
2022/04/20 09:38:07;;;;;;;1.73;1.55;;;;;;;23.60;30.57;101982.63;5069975;28;20093;-67
2022/04/20 09:40:52;;;;;;;2.00;1.67;;;;;;;23.51;30.76;101989.78;5050314;28;20055;-68
2022/04/20 09:43:19;;;;;;;2.28;1.50;;;;;;;23.49;31.15;101989.94;5075353;28;20044;-71
2022/04/20 09:46:01;;;;;;;2.33;1.45;;;;;;;23.55;31.53;101991.09;5051959;28;20067;-70
2022/04/20 09:51:36;;;;;;;3.40;1.42;;;;;;;23.34;31.31;101985.56;4982983;28;20135;-69
2022/04/20 09:54:02;;;;;;;2.38;1.75;;;;;;;23.17;29.64;101987.50;5049793;28;20044;-70
2022/04/20 09:56:27;;;;;;;6.40;2.40;;;;;;;23.28;30.35;101986.25;5076435;28;20032;-67
2022/04/20 09:59:01;;;;;;;3.45;1.90;;;;;;;23.25;29.89;101984.78;5045445;28;20050;-66
2022/04/20 10:01:32;;;;;;;2.22;1.48;;;;;;;23.13;30.26;101984.34;5079012;28;20115;-65
2022/04/20 10:03:59;;;;;;;1.23;1.10;;;;;;;23.11;29.80;101978.38;5049398;28;20036;-66
2022/04/20 10:06:26;;;;;;;2.72;1.60;;;;;;;23.12;29.91;101981.84;5077820;28;20036;-67
2022/04/20 10:08:52;;;;;;;3.15;1.90;;;;;;;23.09;30.05;101972.41;5026257;28;20121;-68
2022/04/20 10:11:22;;;;;;;2.00;1.42;;;;;;;23.12;29.99;101971.22;5081755;28;20047;-67
2022/04/20 10:16:05;;;;;;;1.83;1.60;;;;;;;23.11;29.80;101969.56;5048456;28;20543;-66
2022/04/20 10:16:38;;;;;;;;;;;;;;;23.10;29.88;101974.06;5074942;28;20033;-68
2022/04/20 10:19:07;;;;;;;4.00;1.80;;;;;;;22.98;30.65;101977.28;5051790;28;19934;-70
2022/04/20 10:21:42;;;;;;;3.58;1.98;;;;;;;22.91;31.01;101969.19;5084767;28;20051;-69
2022/04/20 10:24:14;;;;;;;3.45;1.92;;;;;;;23.02;30.94;101975.94;5034201;28;20032;-68
2022/04/20 10:26:40;;;;;;;1.73;1.58;;;;;;;23.15;30.91;101974.34;5079697;28;20062;-69
2022/04/20 10:29:30;;;;;;;2.85;1.85;;;;;;;23.27;31.23;101966.84;5072939;28;20040;-70
2022/04/20 10:32:07;;;;;;;2.13;1.60;;;;;;;23.33;31.22;101960.81;5063640;28;20569;-66
2022/04/20 10:34:37;;;;;;;3.13;1.60;;;;;;;23.37;31.29;101966.63;5031335;28;20831;-66
2022/04/20 10:37:20;;;;;;;3.13;1.83;;;;;;;23.42;31.48;101969.56;5061204;28;20048;-70
2022/04/20 10:40:17;;;;;;;2.45;1.67;;;;;;;23.45;31.23;101969.22;5030847;28;20487;-69
2022/04/20 10:43:19;;;;;;;2.67;1.80;;;;;;;23.46;31.38;101961.06;5057117;28;20032;-67
2022/04/20 10:46:12;;;;;;;2.53;1.65;;;;;;;23.46;31.57;101946.94;5047635;28;20926;-67
2022/04/20 10:49:07;;;;;;;1.80;1.50;;;;;;;23.49;31.49;101954.56;5072109;28;20059;-67
2022/04/20 10:51:41;;;;;;;3.47;1.67;;;;;;;23.52;31.53;101948.91;5046562;28;20036;-71
2022/04/20 10:54:27;;;;;;;1.60;1.50;;;;;;;23.56;31.45;101944.06;5076249;28;20068;-70
2022/04/20 10:57:00;;;;;;;;;;;;;;;23.55;31.63;101937.91;5023255;28;20077;-71
2022/04/20 10:59:25;;;;;;;3.75;2.00;;;;;;;23.43;31.37;101942.81;5068989;28;20701;-69
2022/04/20 11:02:03;;;;;;;2.25;1.50;;;;;;;23.36;31.85;101939.22;5057703;28;20417;-69
2022/04/20 11:04:46;;;;;;;2.15;1.63;;;;;;;23.30;31.51;101936.41;5071678;28;20382;-69
2022/04/20 11:07:34;;;;;;;2.53;1.58;;;;;;;23.27;31.38;101936.78;5012645;28;20042;-68
2022/04/20 11:10:02;;;;;;;1.70;1.50;;;;;;;23.16;31.13;101925.56;5055604;28;20046;-68
2022/04/20 11:21:23;;;;;;;1.92;1.65;;;;;;;23.21;30.59;101925.03;5060523;28;20143;-69
2022/04/20 11:23:58;;;;;;;2.28;1.70;;;;;;;23.19;30.42;101921.72;4988401;28;20039;-68
2022/04/20 11:26:37;;;;;;;2.08;1.60;;;;;;;23.18;30.40;101917.41;5078293;28;20048;-68
2022/04/20 11:29:17;;;;;;;1.52;1.30;;;;;;;23.18;30.43;101912.09;5007240;28;20669;-68
2022/04/20 11:31:48;;;;;;;3.28;1.42;;;;;;;23.14;30.28;101905.47;5079496;28;20040;-68
2022/04/20 11:34:17;;;;;;;2.17;1.42;;;;;;;23.17;30.11;101907.78;5024944;28;20063;-68
2022/04/20 11:36:44;;;;;;;2.38;1.73;;;;;;;23.18;30.46;101907.59;5068986;28;20044;-68
2022/04/20 11:39:11;;;;;;;2.03;1.80;;;;;;;23.15;30.36;101907.94;5018446;28;20048;-68
2022/04/20 11:41:38;;;;;;;1.60;1.50;;;;;;;23.09;30.43;101890.06;5060120;28;20040;-68
2022/04/20 11:44:18;;;;;;;4.88;1.50;;;;;;;23.14;29.95;101892.16;5021234;28;20048;-68
2022/04/20 11:46:44;;;;;;;1.92;1.50;;;;;;;23.10;30.15;101893.53;5047236;28;20035;-67
2022/04/20 11:49:10;;;;;;;1.52;1.42;;;;;;;23.08;30.22;101885.75;5077174;28;20048;-67
2022/04/20 11:51:45;;;;;;;2.65;1.40;;;;;;;23.07;30.04;101881.44;5011836;28;20530;-68
2022/04/20 11:54:17;;;;;;;1.60;1.48;;;;;;;23.06;29.87;101877.13;5074192;28;20110;-69
2022/04/20 11:57:03;;;;;;;1.83;1.50;;;;;;;23.06;29.91;101877.13;5025205;28;20038;-71
2022/04/20 11:59:29;;;;;;;1.70;1.60;;;;;;;23.08;30.11;101874.28;5048862;28;20549;-69
2022/04/20 12:01:55;;;;;;;1.88;1.70;;;;;;;23.05;30.17;101875.47;5012523;28;20480;-70
2022/04/20 12:04:26;;;;;;;1.63;1.30;;;;;;;23.05;30.54;101856.88;5076030;28;20110;-70
2022/04/20 12:06:59;;;;;;;1.63;1.45;;;;;;;23.06;30.76;101863.00;5000958;28;20297;-68
2022/04/20 12:09:26;;;;;;;1.73;1.60;;;;;;;23.05;30.70;101856.88;5076466;28;20177;-71
2022/04/20 12:11:56;;;;;;;1.42;1.33;;;;;;;23.05;30.68;101859.53;5016453;28;20566;-71
2022/04/20 12:14:25;;;;;;;1.52;1.23;;;;;;;23.05;31.25;101862.19;5063372;28;20101;-70
2022/04/20 12:16:52;;;;;;;1.80;1.42;;;;;;;23.06;31.25;101857.69;5042280;28;20036;-68
2022/04/20 12:19:24;;;;;;;2.60;1.35;;;;;;;23.08;30.94;101863.66;5020614;28;20041;-71
2022/04/20 12:21:50;;;;;;;3.40;1.30;;;;;;;23.06;30.95;101858.53;5066575;28;20036;-71
2022/04/20 12:24:24;;;;;;;1.90;1.30;;;;;;;23.05;30.96;101851.56;4978929;28;20052;-71
2022/04/20 12:26:52;;;;;;;2.85;1.20;;;;;;;23.06;31.24;101850.56;5074061;28;20277;-71
2022/04/20 12:29:35;;;;;;;1.40;1.30;;;;;;;23.04;31.06;101841.94;5003444;28;20351;-70
2022/04/20 12:32:01;;;;;;;2.35;1.45;;;;;;;23.05;31.29;101840.09;5051729;28;20028;-70